createdAt,value
2022-09-12T00:02:46.239Z,101594.34
2022-09-12T00:06:13.538Z,101598.81
2022-09-12T00:09:35.227Z,101591.91
2022-09-12T00:12:56.782Z,101593.72
2022-09-12T00:16:20.446Z,101588.72
2022-09-12T00:19:43.329Z,101586.56
2022-09-12T00:23:04.655Z,101585.00
2022-09-12T00:26:26.832Z,101586.25
2022-09-12T00:29:48.448Z,101589.16
2022-09-12T00:33:10.562Z,101585.03
2022-09-12T00:36:33.461Z,101580.22
2022-09-12T00:39:55.278Z,101578.75
2022-09-12T00:43:36.806Z,101587.16
2022-09-12T00:47:02.067Z,101577.56
2022-09-12T00:50:23.564Z,101574.19
2022-09-12T00:53:49.735Z,101577.13
2022-09-12T00:57:14.697Z,101578.34
2022-09-12T01:00:36.277Z,101573.25
2022-09-12T01:03:58.290Z,101576.03
2022-09-12T01:07:20.817Z,101568.28
2022-09-12T01:10:43.970Z,101569.34
2022-09-12T01:14:05.936Z,101568.78
2022-09-12T01:17:33.714Z,101566.34
2022-09-12T01:21:12.046Z,101566.59
2022-09-12T01:25:00.715Z,101575.59
2022-09-12T01:28:49.912Z,101574.75
2022-09-12T01:32:19.561Z,101574.75
2022-09-12T01:35:49.121Z,101574.75
2022-09-12T01:39:20.277Z,101574.00
2022-09-12T01:42:52.928Z,101578.38
2022-09-12T01:46:18.517Z,101567.44
2022-09-12T01:49:48.596Z,101572.53
2022-09-12T01:53:15.699Z,101569.59
2022-09-12T01:56:41.332Z,101566.69
2022-09-12T02:00:07.319Z,101570.81
2022-09-12T02:03:41.702Z,101570.44
2022-09-12T02:07:11.958Z,101569.34
2022-09-12T02:10:41.453Z,101571.75
2022-09-12T02:14:07.818Z,101571.63
2022-09-12T02:17:31.922Z,101572.47
2022-09-12T02:20:54.448Z,101562.50
2022-09-12T02:24:19.104Z,101556.19
2022-09-12T02:27:45.857Z,101555.31
2022-09-12T02:31:15.326Z,101563.22
2022-09-12T02:34:49.420Z,101554.22
2022-09-12T02:38:15.786Z,101548.88
2022-09-12T02:41:39.306Z,101551.56
2022-09-12T02:45:01.143Z,101548.88
2022-09-12T02:48:28.292Z,101551.31
2022-09-12T02:51:50.654Z,101549.34
2022-09-12T02:55:13.030Z,101560.03
2022-09-12T02:58:36.403Z,101555.66
2022-09-12T03:02:13.404Z,101559.22
2022-09-12T03:05:38.977Z,101557.13
2022-09-12T03:09:11.543Z,101558.81
2022-09-12T03:12:46.694Z,101557.13
2022-09-12T03:16:19.211Z,101552.75
2022-09-12T03:19:53.762Z,101557.38
2022-09-12T03:23:25.024Z,101550.59
2022-09-12T03:26:51.174Z,101552.38
2022-09-12T03:30:13.735Z,101553.50
2022-09-12T03:33:36.855Z,101554.59
2022-09-12T03:36:58.794Z,101555.72
2022-09-12T03:40:20.819Z,101555.72
2022-09-12T03:43:42.820Z,101552.31
2022-09-12T03:47:08.096Z,101559.63
2022-09-12T03:50:34.952Z,101564.97
2022-09-12T03:53:56.981Z,101564.25
2022-09-12T03:57:19.149Z,101564.38
2022-09-12T04:00:42.819Z,101564.72
2022-09-12T04:04:04.463Z,101569.50
2022-09-12T04:07:27.666Z,101574.84
2022-09-12T04:10:49.352Z,101567.06
2022-09-12T04:14:10.930Z,101576.06
2022-09-12T04:17:32.663Z,101572.78
2022-09-12T04:20:54.636Z,101579.25
2022-09-12T04:24:17.581Z,101575.97
2022-09-12T04:27:39.182Z,101579.72
2022-09-12T04:31:03.459Z,101582.53
2022-09-12T04:34:25.138Z,101584.47
2022-09-12T04:37:46.902Z,101584.47
2022-09-12T04:41:14.201Z,101583.88
2022-09-12T04:44:35.638Z,101582.06
2022-09-12T04:47:57.330Z,101586.69
2022-09-12T04:51:22.090Z,101585.09
2022-09-12T04:54:43.952Z,101575.38
2022-09-12T04:58:06.733Z,101576.00
2022-09-12T05:01:30.082Z,101579.63
2022-09-12T05:04:52.628Z,101587.50
2022-09-12T05:08:14.576Z,101577.69
2022-09-12T05:12:03.837Z,101584.72
2022-09-12T05:15:23.227Z,101578.28
2022-09-12T05:18:46.768Z,101587.16
2022-09-12T05:22:09.767Z,101584.34
2022-09-12T05:25:31.858Z,101588.13
2022-09-12T05:28:53.891Z,101596.88
2022-09-12T05:32:17.032Z,101599.06
2022-09-12T05:35:39.091Z,101601.00
2022-09-12T05:39:01.737Z,101599.56
2022-09-12T05:42:23.504Z,101615.34
2022-09-12T05:45:45.101Z,101603.69
2022-09-12T05:49:11.380Z,101605.25
2022-09-12T05:52:33.521Z,101614.84
2022-09-12T05:56:03.683Z,101613.72
2022-09-12T05:59:25.422Z,101621.25
2022-09-12T06:02:53.278Z,101622.84
2022-09-12T06:06:18.740Z,101625.16
2022-09-12T06:09:40.497Z,101625.50
2022-09-12T06:13:03.930Z,101626.72
2022-09-12T06:16:28.200Z,101619.16
2022-09-12T06:19:50.150Z,101629.34
2022-09-12T06:23:13.744Z,101624.84
2022-09-12T06:26:36.005Z,101618.41
2022-09-12T06:29:58.013Z,101624.22
2022-09-12T06:33:20.805Z,101629.56
2022-09-12T06:36:44.390Z,101633.84
2022-09-12T06:40:10.176Z,101632.00
2022-09-12T06:43:32.591Z,101634.66
2022-09-12T06:46:54.495Z,101629.06
2022-09-12T06:50:16.389Z,101636.00
2022-09-12T06:53:38.575Z,101625.88
2022-09-12T06:57:02.071Z,101628.19
2022-09-12T07:00:23.803Z,101634.97
2022-09-12T07:03:49.949Z,101629.97
2022-09-12T07:07:12.113Z,101629.50
2022-09-12T07:10:34.419Z,101641.00
2022-09-12T07:13:58.826Z,101635.13
2022-09-12T07:17:20.442Z,101636.44
2022-09-12T07:20:42.834Z,101638.47
2022-09-12T07:24:04.881Z,101632.47
2022-09-12T07:27:26.931Z,101630.38
2022-09-12T07:30:50.333Z,101636.03
2022-09-12T07:34:12.931Z,101638.91
2022-09-12T07:37:34.662Z,101634.88
2022-09-12T07:40:57.023Z,101630.81
2022-09-12T07:44:18.928Z,101626.75
2022-09-12T07:47:42.119Z,101633.41
2022-09-12T07:51:07.416Z,101633.72
2022-09-12T07:54:28.926Z,101631.34
2022-09-12T07:57:51.039Z,101630.56
2022-09-12T08:01:14.403Z,101626.34
2022-09-12T08:04:37.330Z,101623.13
2022-09-12T08:07:59.153Z,101626.69
2022-09-12T08:11:22.523Z,101630.56
2022-09-12T08:14:43.970Z,101632.53
2022-09-12T08:18:06.014Z,101625.63
2022-09-12T08:21:31.526Z,101628.50
2022-09-12T08:24:53.645Z,101630.06
2022-09-12T08:28:15.535Z,101620.44
2022-09-12T08:31:37.463Z,101625.97
2022-09-12T08:34:59.475Z,101621.59
2022-09-12T08:38:23.753Z,101620.72
2022-09-12T08:41:46.826Z,101614.38
2022-09-12T08:45:18.958Z,101619.31
2022-09-12T08:48:42.221Z,101620.44
2022-09-12T08:52:09.291Z,101619.59
2022-09-12T08:55:36.022Z,101626.66
2022-09-12T08:58:58.093Z,101627.59
2022-09-12T09:02:51.282Z,101625.56
2022-09-12T09:06:26.833Z,101619.78
2022-09-12T09:10:02.062Z,101618.19
2022-09-12T09:13:51.969Z,101611.38
2022-09-12T09:17:20.214Z,101620.81
2022-09-12T09:20:48.018Z,101618.03
2022-09-12T09:24:14.141Z,101624.06
2022-09-12T09:27:41.729Z,101618.69
2022-09-12T09:31:05.069Z,101622.47
2022-09-12T09:34:31.473Z,101621.19
2022-09-12T09:38:02.795Z,101622.41
2022-09-12T09:41:36.550Z,101609.81
2022-09-12T09:45:01.865Z,101621.28
2022-09-12T09:48:29.087Z,101613.75
2022-09-12T09:51:51.022Z,101612.88
2022-09-12T09:55:17.911Z,101600.31
2022-09-12T09:58:41.062Z,101605.63
2022-09-12T10:02:23.806Z,101595.94
2022-09-12T10:05:50.030Z,101587.41
2022-09-12T10:09:27.117Z,101596.41
2022-09-12T10:12:48.753Z,101592.09
2022-09-12T10:16:20.775Z,101586.75
2022-09-12T10:19:42.526Z,101578.56
2022-09-12T10:23:29.493Z,101584.56
2022-09-12T10:26:57.049Z,101582.91
2022-09-12T10:30:21.933Z,101584.63
2022-09-12T10:33:47.329Z,101583.88
2022-09-12T10:37:11.879Z,101568.75
2022-09-12T10:40:40.245Z,101574.19
2022-09-12T10:44:09.590Z,101575.06
2022-09-12T10:47:32.694Z,101574.25
2022-09-12T10:50:54.311Z,101566.00
2022-09-12T10:54:18.197Z,101572.47
2022-09-12T10:58:27.240Z,101575.66
2022-09-12T11:02:01.084Z,101570.94
2022-09-12T11:05:46.776Z,101567.91
2022-09-12T11:09:14.395Z,101568.91
2022-09-12T11:12:44.725Z,101565.69
2022-09-12T11:16:17.147Z,101565.88
2022-09-12T11:19:51.980Z,101561.97
2022-09-12T11:23:33.521Z,101569.34
2022-09-12T11:27:06.502Z,101562.25
2022-09-12T11:30:37.463Z,101567.63
2022-09-12T11:34:02.402Z,101567.47
2022-09-12T11:37:43.666Z,101558.44
2022-09-12T11:41:08.436Z,101560.63
2022-09-12T11:44:40.271Z,101559.78
2022-09-12T11:48:08.309Z,101554.06
2022-09-12T11:51:36.849Z,101550.50
2022-09-12T11:55:03.829Z,101549.56
2022-09-12T11:58:29.238Z,101548.56
2022-09-12T12:01:54.799Z,101551.78
2022-09-12T12:05:21.546Z,101543.84
2022-09-12T12:08:45.895Z,101540.88
2022-09-12T12:12:16.686Z,101536.97
2022-09-12T12:15:40.425Z,101535.47
2022-09-12T12:19:08.736Z,101533.44
2022-09-12T12:22:32.610Z,101529.06
2022-09-12T12:25:56.095Z,101525.34
2022-09-12T12:29:43.388Z,101526.53
2022-09-12T12:33:46.067Z,101522.31
2022-09-12T12:37:41.034Z,101511.16
2022-09-12T12:41:40.630Z,101502.38
2022-09-12T12:45:05.397Z,101504.41
2022-09-12T12:48:27.646Z,101513.84
2022-09-12T12:51:57.672Z,101507.09
2022-09-12T12:55:26.382Z,101504.56
2022-09-12T12:58:48.327Z,101504.03
2022-09-12T13:02:22.539Z,101507.41
2022-09-12T13:05:48.002Z,101504.34
2022-09-12T13:09:21.864Z,101501.13
2022-09-12T13:12:49.293Z,101501.47
2022-09-12T13:16:12.630Z,101497.38
2022-09-12T13:19:38.429Z,101497.91
2022-09-12T13:23:00.478Z,101484.34
2022-09-12T13:26:25.188Z,101487.41
2022-09-12T13:29:47.193Z,101479.25
2022-09-12T13:33:22.038Z,101486.50
2022-09-12T13:37:09.847Z,101482.59
2022-09-12T13:40:36.869Z,101476.53
2022-09-12T13:43:59.880Z,101478.56
2022-09-12T13:47:30.039Z,101472.16
2022-09-12T13:50:54.870Z,101470.97
2022-09-12T13:54:24.314Z,101471.94
2022-09-12T13:57:46.324Z,101469.75
2022-09-12T14:01:13.567Z,101468.72
2022-09-12T14:04:57.410Z,101468.66
2022-09-12T14:08:20.399Z,101459.47
2022-09-12T14:11:44.093Z,101472.78
2022-09-12T14:15:09.565Z,101468.03
2022-09-12T14:18:36.489Z,101455.66
2022-09-12T14:21:59.059Z,101462.03
2022-09-12T14:25:23.433Z,101455.09
2022-09-12T14:28:48.219Z,101446.81
2022-09-12T14:32:22.642Z,101448.97
2022-09-12T14:35:50.157Z,101448.81
2022-09-12T14:39:25.917Z,101442.53
2022-09-12T14:42:50.641Z,101450.50
2022-09-12T14:46:20.805Z,101445.72
2022-09-12T14:49:43.312Z,101448.28
2022-09-12T14:53:07.254Z,101438.63
2022-09-12T14:56:42.718Z,101445.44
2022-09-12T15:00:22.232Z,101443.75
2022-09-12T15:03:53.876Z,101433.94
2022-09-12T15:07:16.627Z,101443.25
2022-09-12T15:10:39.821Z,101439.44
2022-09-12T15:14:08.274Z,101436.91
2022-09-12T15:17:30.249Z,101431.69
2022-09-12T15:20:56.582Z,101431.69
2022-09-12T15:24:18.433Z,101429.13
2022-09-12T15:27:40.857Z,101438.44
2022-09-12T15:31:07.851Z,101430.03
2022-09-12T15:34:29.513Z,101436.81
2022-09-12T15:37:53.121Z,101427.38
2022-09-12T15:41:17.018Z,101435.19
2022-09-12T15:44:39.037Z,101433.00
2022-09-12T15:48:01.050Z,101430.88
2022-09-12T15:51:23.443Z,101427.19
2022-09-12T15:54:46.370Z,101424.16
2022-09-12T15:58:09.037Z,101425.88
2022-09-12T16:01:30.925Z,101416.78
2022-09-12T16:04:54.681Z,101418.97
2022-09-12T16:08:16.286Z,101413.44
2022-09-12T16:11:39.626Z,101421.41
2022-09-12T16:15:02.290Z,101419.56
2022-09-12T16:18:23.820Z,101415.88
2022-09-12T16:21:45.593Z,101415.72
2022-09-12T16:25:08.593Z,101413.06
2022-09-12T16:28:33.267Z,101405.84
2022-09-12T16:31:55.519Z,101404.81
2022-09-12T16:35:17.343Z,101400.13
2022-09-12T16:38:41.957Z,101404.53
2022-09-12T16:42:04.356Z,101402.34
2022-09-12T16:45:27.528Z,101405.91
2022-09-12T16:48:52.723Z,101394.06
2022-09-12T16:52:16.621Z,101396.41
2022-09-12T16:55:38.330Z,101387.16
2022-09-12T16:58:59.672Z,101388.00
2022-09-12T17:02:22.363Z,101388.16
2022-09-12T17:05:43.733Z,101378.25
2022-09-12T17:09:06.451Z,101381.78
2022-09-12T17:12:27.903Z,101378.22
2022-09-12T17:15:49.698Z,101372.81
2022-09-12T17:19:17.267Z,101366.41
2022-09-12T17:22:38.826Z,101368.25
2022-09-12T17:26:00.549Z,101368.06
2022-09-12T17:29:22.398Z,101369.75
2022-09-12T17:32:44.022Z,101366.16
2022-09-12T17:36:09.283Z,101371.50
2022-09-12T17:39:30.967Z,101369.63
2022-09-12T17:42:52.748Z,101367.09
2022-09-12T17:46:15.142Z,101370.75
2022-09-12T17:49:37.810Z,101371.38
2022-09-12T17:53:01.326Z,101365.16
2022-09-12T17:56:23.627Z,101366.78
2022-09-12T17:59:45.123Z,101370.44
2022-09-12T18:03:05.555Z,101372.06
2022-09-12T18:06:28.030Z,101376.41
2022-09-12T18:09:51.831Z,101371.81
2022-09-12T18:13:14.021Z,101374.44
2022-09-12T18:16:36.190Z,101378.75
2022-09-12T18:19:57.924Z,101375.97
2022-09-12T18:23:19.643Z,101382.84
2022-09-12T18:26:43.661Z,101380.94
2022-09-12T18:30:20.639Z,101389.78
2022-09-12T18:33:43.059Z,101377.13
2022-09-12T18:37:05.347Z,101384.09
2022-09-12T18:40:27.218Z,101386.72
2022-09-12T18:43:54.629Z,101383.81
2022-09-12T18:47:16.431Z,101386.38
2022-09-12T18:50:37.707Z,101384.50
2022-09-12T18:54:01.131Z,101379.88
2022-09-12T18:57:23.383Z,101371.56
2022-09-12T19:00:48.370Z,101374.72
2022-09-12T19:04:13.074Z,101379.66
2022-09-12T19:07:34.887Z,101365.81
2022-09-12T19:10:57.867Z,101363.72
2022-09-12T19:14:25.125Z,101360.09
2022-09-12T19:17:48.442Z,101353.50
2022-09-12T19:21:14.674Z,101347.75
2022-09-12T19:24:36.652Z,101348.31
2022-09-12T19:27:58.514Z,101350.78
2022-09-12T19:31:21.730Z,101345.31
2022-09-12T19:34:44.926Z,101341.50
2022-09-12T19:38:06.770Z,101335.88
2022-09-12T19:41:28.928Z,101335.63
2022-09-12T19:44:55.606Z,101328.00
2022-09-12T19:48:17.550Z,101329.28
2022-09-12T19:51:41.199Z,101334.13
2022-09-12T19:55:02.725Z,101325.50
2022-09-12T19:58:24.674Z,101332.28
2022-09-12T20:01:46.438Z,101332.75
2022-09-12T20:05:09.039Z,101320.75
2022-09-12T20:08:32.450Z,101321.47
2022-09-12T20:11:54.065Z,101316.41
2022-09-12T20:15:15.570Z,101316.66
2022-09-12T20:18:37.516Z,101317.22
2022-09-12T20:21:59.718Z,101308.78
2022-09-12T20:25:22.654Z,101314.72
2022-09-12T20:28:44.512Z,101303.59
2022-09-12T20:32:06.376Z,101297.81
2022-09-12T20:35:28.165Z,101295.56
2022-09-12T20:38:51.614Z,101305.69
2022-09-12T20:42:14.729Z,101302.59
2022-09-12T20:45:41.354Z,101305.72
2022-09-12T20:49:14.701Z,101307.13
2022-09-12T20:52:36.866Z,101303.88
2022-09-12T20:55:58.617Z,101304.31
2022-09-12T20:59:21.855Z,101288.66
2022-09-12T21:02:43.792Z,101282.88
2022-09-12T21:06:06.356Z,101284.25
2022-09-12T21:09:28.145Z,101279.19
2022-09-12T21:12:50.101Z,101280.34
2022-09-12T21:16:15.655Z,101280.63
2022-09-12T21:19:39.354Z,101277.34
2022-09-12T21:23:01.415Z,101275.78
2022-09-12T21:26:22.967Z,101275.25
2022-09-12T21:29:47.653Z,101279.03
2022-09-12T21:33:12.761Z,101276.78
2022-09-12T21:36:34.435Z,101271.56
2022-09-12T21:39:56.478Z,101280.84
2022-09-12T21:43:18.412Z,101278.44
2022-09-12T21:46:40.501Z,101272.53
2022-09-12T21:50:03.602Z,101277.31
2022-09-12T21:53:25.292Z,101267.88
2022-09-12T21:56:47.162Z,101262.66
2022-09-12T22:00:13.053Z,101259.50
2022-09-12T22:03:34.382Z,101258.94
2022-09-12T22:06:57.550Z,101252.88
2022-09-12T22:10:19.330Z,101265.53
2022-09-12T22:13:43.743Z,101259.34
2022-09-12T22:17:05.457Z,101253.28
2022-09-12T22:20:27.306Z,101234.97
2022-09-12T22:24:08.027Z,101244.09
2022-09-12T22:27:29.529Z,101235.38
2022-09-12T22:30:51.812Z,101224.94
2022-09-12T22:34:13.801Z,101222.81
2022-09-12T22:37:35.947Z,101225.75
2022-09-12T22:41:00.207Z,101224.06
2022-09-12T22:44:21.597Z,101220.69
2022-09-12T22:47:42.938Z,101205.03
2022-09-12T22:51:04.965Z,101201.81
2022-09-12T22:54:28.026Z,101196.03
2022-09-12T22:57:51.402Z,101188.28
2022-09-12T23:01:13.560Z,101187.53
2022-09-12T23:04:35.114Z,101179.53
2022-09-12T23:07:56.929Z,101178.09
2022-09-12T23:11:21.480Z,101174.72
2022-09-12T23:14:44.078Z,101170.50
2022-09-12T23:18:05.647Z,101155.84
2022-09-12T23:21:27.086Z,101154.44
2022-09-12T23:24:48.523Z,101148.50
2022-09-12T23:28:10.426Z,101144.28
2022-09-12T23:31:35.271Z,101144.41
2022-09-12T23:34:56.898Z,101142.72
2022-09-12T23:38:18.766Z,101145.53
2022-09-12T23:41:40.976Z,101148.50
2022-09-12T23:45:02.813Z,101146.78
2022-09-12T23:48:26.698Z,101141.97
2022-09-12T23:51:48.144Z,101144.78
2022-09-12T23:55:10.610Z,101138.84
2022-09-12T23:58:33.082Z,101127.59
